Terminal Aerodrome Forecast
Issued by NWS

Home | Current Version | Previous Version | Text Only | Print | Product List | Glossary On
Versions: 1 2 3 4 5 6 7 8 9 10 11 12 13 14 15 16 17
367
FTUS41 KBTV 242325
TAFRUT
TAF
KRUT 242325Z 2500/2524 VRB03KT P6SM FEW120
     FM250600 13004KT P6SM FEW001
     FM251300 35006KT P6SM SKC
     FM251600 34012KT P6SM SKC
      AMD LTD TO CLD VIS AND WIND=

USA.gov is the U.S. government's official web portal to all federal, state and local government web resources and services.